sensor_id;sensor_type;location;lat;lon;timestamp;P1;durP1;ratioP1;P2;durP2;ratioP2
15126;SDS011;7664;52.008;4.748;2023-03-08T00:01:34;3.60;;;2.20;;
15126;SDS011;7664;52.008;4.748;2023-03-08T00:04:03;4.82;;;2.28;;
15126;SDS011;7664;52.008;4.748;2023-03-08T00:06:33;2.45;;;1.90;;
15126;SDS011;7664;52.008;4.748;2023-03-08T00:09:01;3.40;;;2.60;;
15126;SDS011;7664;52.008;4.748;2023-03-08T00:11:29;4.35;;;2.10;;
15126;SDS011;7664;52.008;4.748;2023-03-08T00:13:58;3.53;;;2.00;;
15126;SDS011;7664;52.008;4.748;2023-03-08T00:16:27;4.45;;;1.90;;
15126;SDS011;7664;52.008;4.748;2023-03-08T00:18:55;6.10;;;2.65;;
15126;SDS011;7664;52.008;4.748;2023-03-08T00:21:23;5.72;;;2.67;;
15126;SDS011;7664;52.008;4.748;2023-03-08T00:23:53;4.75;;;2.70;;
15126;SDS011;7664;52.008;4.748;2023-03-08T00:26:21;5.55;;;2.78;;
15126;SDS011;7664;52.008;4.748;2023-03-08T00:28:52;3.60;;;2.30;;
15126;SDS011;7664;52.008;4.748;2023-03-08T00:31:21;7.82;;;2.83;;
15126;SDS011;7664;52.008;4.748;2023-03-08T00:33:52;4.95;;;2.90;;
15126;SDS011;7664;52.008;4.748;2023-03-08T00:36:26;3.63;;;2.45;;
15126;SDS011;7664;52.008;4.748;2023-03-08T00:39:00;2.35;;;1.70;;
15126;SDS011;7664;52.008;4.748;2023-03-08T00:41:29;5.82;;;1.02;;
15126;SDS011;7664;52.008;4.748;2023-03-08T00:43:57;1.55;;;1.08;;
15126;SDS011;7664;52.008;4.748;2023-03-08T00:46:26;0.55;;;0.43;;
15126;SDS011;7664;52.008;4.748;2023-03-08T00:48:56;4.80;;;0.98;;
15126;SDS011;7664;52.008;4.748;2023-03-08T00:51:29;0.52;;;0.40;;
15126;SDS011;7664;52.008;4.748;2023-03-08T00:54:04;1.40;;;0.60;;
15126;SDS011;7664;52.008;4.748;2023-03-08T00:56:33;1.08;;;1.00;;
15126;SDS011;7664;52.008;4.748;2023-03-08T00:59:01;4.00;;;0.70;;
15126;SDS011;7664;52.008;4.748;2023-03-08T01:01:29;2.13;;;0.63;;
15126;SDS011;7664;52.008;4.748;2023-03-08T01:03:58;0.73;;;0.50;;
15126;SDS011;7664;52.008;4.748;2023-03-08T01:06:26;0.43;;;0.40;;
15126;SDS011;7664;52.008;4.748;2023-03-08T01:08:54;1.60;;;0.52;;
15126;SDS011;7664;52.008;4.748;2023-03-08T01:11:25;2.50;;;0.70;;
15126;SDS011;7664;52.008;4.748;2023-03-08T01:13:53;1.08;;;0.65;;
15126;SDS011;7664;52.008;4.748;2023-03-08T01:16:22;0.60;;;0.55;;
15126;SDS011;7664;52.008;4.748;2023-03-08T01:18:52;2.85;;;1.02;;
15126;SDS011;7664;52.008;4.748;2023-03-08T01:21:21;1.70;;;1.17;;
15126;SDS011;7664;52.008;4.748;2023-03-08T01:23:49;1.63;;;1.02;;
15126;SDS011;7664;52.008;4.748;2023-03-08T01:26:21;0.95;;;0.52;;
15126;SDS011;7664;52.008;4.748;2023-03-08T01:28:54;1.00;;;0.80;;
15126;SDS011;7664;52.008;4.748;2023-03-08T01:31:27;2.08;;;1.00;;
15126;SDS011;7664;52.008;4.748;2023-03-08T01:33:57;1.05;;;0.80;;
15126;SDS011;7664;52.008;4.748;2023-03-08T01:36:26;0.80;;;0.80;;
15126;SDS011;7664;52.008;4.748;2023-03-08T01:38:54;2.47;;;1.05;;
15126;SDS011;7664;52.008;4.748;2023-03-08T01:41:26;1.38;;;0.90;;
15126;SDS011;7664;52.008;4.748;2023-03-08T01:43:56;1.40;;;1.13;;
15126;SDS011;7664;52.008;4.748;2023-03-08T01:46:28;2.65;;;1.40;;
15126;SDS011;7664;52.008;4.748;2023-03-08T01:49:08;1.10;;;0.90;;
15126;SDS011;7664;52.008;4.748;2023-03-08T01:51:38;2.40;;;1.10;;
15126;SDS011;7664;52.008;4.748;2023-03-08T01:54:08;1.58;;;1.00;;
15126;SDS011;7664;52.008;4.748;2023-03-08T01:56:38;2.38;;;1.27;;
15126;SDS011;7664;52.008;4.748;2023-03-08T01:59:07;3.55;;;2.08;;
15126;SDS011;7664;52.008;4.748;2023-03-08T02:01:36;1.50;;;1.40;;
15126;SDS011;7664;52.008;4.748;2023-03-08T02:04:07;3.15;;;1.88;;
15126;SDS011;7664;52.008;4.748;2023-03-08T02:06:36;4.88;;;2.05;;
15126;SDS011;7664;52.008;4.748;2023-03-08T02:09:05;2.50;;;1.60;;
15126;SDS011;7664;52.008;4.748;2023-03-08T02:11:34;3.97;;;2.15;;
15126;SDS011;7664;52.008;4.748;2023-03-08T02:14:08;3.55;;;2.17;;
15126;SDS011;7664;52.008;4.748;2023-03-08T02:16:40;3.67;;;2.20;;
15126;SDS011;7664;52.008;4.748;2023-03-08T02:19:09;2.75;;;2.05;;
15126;SDS011;7664;52.008;4.748;2023-03-08T02:21:39;4.30;;;2.67;;
15126;SDS011;7664;52.008;4.748;2023-03-08T02:24:16;4.45;;;3.03;;
15126;SDS011;7664;52.008;4.748;2023-03-08T02:26:46;4.05;;;3.00;;
15126;SDS011;7664;52.008;4.748;2023-03-08T02:29:17;5.70;;;2.92;;
15126;SDS011;7664;52.008;4.748;2023-03-08T02:31:46;5.45;;;2.95;;
15126;SDS011;7664;52.008;4.748;2023-03-08T02:34:14;7.57;;;3.42;;
15126;SDS011;7664;52.008;4.748;2023-03-08T02:36:42;7.00;;;3.38;;
15126;SDS011;7664;52.008;4.748;2023-03-08T02:39:13;7.07;;;3.00;;
15126;SDS011;7664;52.008;4.748;2023-03-08T02:41:45;5.35;;;3.83;;
15126;SDS011;7664;52.008;4.748;2023-03-08T02:44:15;3.92;;;3.17;;
15126;SDS011;7664;52.008;4.748;2023-03-08T02:46:44;6.10;;;3.58;;
15126;SDS011;7664;52.008;4.748;2023-03-08T02:49:17;6.53;;;3.65;;
15126;SDS011;7664;52.008;4.748;2023-03-08T02:51:46;7.03;;;4.28;;
15126;SDS011;7664;52.008;4.748;2023-03-08T02:54:17;7.07;;;4.10;;
15126;SDS011;7664;52.008;4.748;2023-03-08T02:56:47;6.03;;;3.80;;
15126;SDS011;7664;52.008;4.748;2023-03-08T02:59:15;6.32;;;4.95;;
15126;SDS011;7664;52.008;4.748;2023-03-08T03:01:43;5.55;;;4.35;;
15126;SDS011;7664;52.008;4.748;2023-03-08T03:04:14;5.78;;;4.03;;
15126;SDS011;7664;52.008;4.748;2023-03-08T03:06:43;6.18;;;4.32;;
15126;SDS011;7664;52.008;4.748;2023-03-08T03:09:12;5.88;;;4.60;;
15126;SDS011;7664;52.008;4.748;2023-03-08T03:11:41;6.80;;;4.47;;
15126;SDS011;7664;52.008;4.748;2023-03-08T03:14:11;6.47;;;4.95;;
15126;SDS011;7664;52.008;4.748;2023-03-08T03:16:41;6.95;;;4.68;;
15126;SDS011;7664;52.008;4.748;2023-03-08T03:19:10;7.22;;;5.00;;
15126;SDS011;7664;52.008;4.748;2023-03-08T03:21:39;7.38;;;5.00;;
15126;SDS011;7664;52.008;4.748;2023-03-08T03:24:07;8.10;;;5.40;;
15126;SDS011;7664;52.008;4.748;2023-03-08T03:26:43;7.10;;;5.53;;
15126;SDS011;7664;52.008;4.748;2023-03-08T03:29:17;8.45;;;6.22;;
15126;SDS011;7664;52.008;4.748;2023-03-08T03:31:50;9.77;;;6.85;;
15126;SDS011;7664;52.008;4.748;2023-03-08T03:34:21;9.25;;;6.72;;
15126;SDS011;7664;52.008;4.748;2023-03-08T03:36:50;11.38;;;7.50;;
15126;SDS011;7664;52.008;4.748;2023-03-08T03:39:19;9.52;;;6.22;;
15126;SDS011;7664;52.008;4.748;2023-03-08T03:41:47;12.80;;;7.90;;
15126;SDS011;7664;52.008;4.748;2023-03-08T03:44:17;12.15;;;8.00;;
15126;SDS011;7664;52.008;4.748;2023-03-08T03:46:48;11.25;;;7.07;;
15126;SDS011;7664;52.008;4.748;2023-03-08T03:49:22;13.90;;;8.15;;
15126;SDS011;7664;52.008;4.748;2023-03-08T03:51:50;11.98;;;7.97;;
15126;SDS011;7664;52.008;4.748;2023-03-08T03:54:23;13.35;;;8.30;;
15126;SDS011;7664;52.008;4.748;2023-03-08T03:56:56;11.90;;;8.30;;
15126;SDS011;7664;52.008;4.748;2023-03-08T03:59:31;12.20;;;8.95;;
15126;SDS011;7664;52.008;4.748;2023-03-08T04:02:00;13.45;;;8.63;;
15126;SDS011;7664;52.008;4.748;2023-03-08T04:04:35;14.30;;;8.43;;
15126;SDS011;7664;52.008;4.748;2023-03-08T04:07:06;12.25;;;8.20;;
15126;SDS011;7664;52.008;4.748;2023-03-08T04:09:41;13.82;;;9.35;;
15126;SDS011;7664;52.008;4.748;2023-03-08T04:12:14;14.50;;;9.00;;
15126;SDS011;7664;52.008;4.748;2023-03-08T04:14:46;15.93;;;10.50;;
15126;SDS011;7664;52.008;4.748;2023-03-08T04:17:15;16.17;;;10.32;;
15126;SDS011;7664;52.008;4.748;2023-03-08T04:19:51;21.33;;;12.15;;
15126;SDS011;7664;52.008;4.748;2023-03-08T04:22:20;19.60;;;12.00;;
15126;SDS011;7664;52.008;4.748;2023-03-08T04:24:59;19.98;;;11.27;;
15126;SDS011;7664;52.008;4.748;2023-03-08T04:27:42;20.83;;;12.90;;
15126;SDS011;7664;52.008;4.748;2023-03-08T04:30:13;23.10;;;13.35;;
15126;SDS011;7664;52.008;4.748;2023-03-08T04:32:42;19.00;;;12.15;;
15126;SDS011;7664;52.008;4.748;2023-03-08T04:35:11;18.88;;;11.65;;
15126;SDS011;7664;52.008;4.748;2023-03-08T04:37:42;20.38;;;12.80;;
15126;SDS011;7664;52.008;4.748;2023-03-08T04:40:16;20.08;;;12.68;;
15126;SDS011;7664;52.008;4.748;2023-03-08T04:42:51;20.55;;;12.73;;
15126;SDS011;7664;52.008;4.748;2023-03-08T04:45:26;21.27;;;12.80;;
15126;SDS011;7664;52.008;4.748;2023-03-08T04:47:57;17.15;;;11.93;;
15126;SDS011;7664;52.008;4.748;2023-03-08T04:50:26;18.80;;;12.15;;
15126;SDS011;7664;52.008;4.748;2023-03-08T04:52:56;23.90;;;13.60;;
15126;SDS011;7664;52.008;4.748;2023-03-08T04:55:25;28.08;;;14.60;;
15126;SDS011;7664;52.008;4.748;2023-03-08T04:57:57;21.75;;;12.35;;
15126;SDS011;7664;52.008;4.748;2023-03-08T05:00:31;22.15;;;13.48;;
15126;SDS011;7664;52.008;4.748;2023-03-08T05:03:00;23.42;;;13.85;;
15126;SDS011;7664;52.008;4.748;2023-03-08T05:05:28;22.30;;;13.48;;
15126;SDS011;7664;52.008;4.748;2023-03-08T05:07:57;21.50;;;13.05;;
15126;SDS011;7664;52.008;4.748;2023-03-08T05:10:32;20.95;;;12.35;;
15126;SDS011;7664;52.008;4.748;2023-03-08T05:13:01;22.42;;;13.70;;
15126;SDS011;7664;52.008;4.748;2023-03-08T05:15:29;24.40;;;15.23;;
15126;SDS011;7664;52.008;4.748;2023-03-08T05:17:59;24.25;;;13.90;;
15126;SDS011;7664;52.008;4.748;2023-03-08T05:20:28;23.92;;;13.35;;
15126;SDS011;7664;52.008;4.748;2023-03-08T05:22:58;24.48;;;16.15;;
15126;SDS011;7664;52.008;4.748;2023-03-08T05:25:33;26.35;;;15.93;;
15126;SDS011;7664;52.008;4.748;2023-03-08T05:28:01;28.92;;;16.27;;
15126;SDS011;7664;52.008;4.748;2023-03-08T05:30:29;31.90;;;17.52;;
15126;SDS011;7664;52.008;4.748;2023-03-08T05:33:01;25.95;;;15.45;;
15126;SDS011;7664;52.008;4.748;2023-03-08T05:35:35;22.58;;;13.55;;
15126;SDS011;7664;52.008;4.748;2023-03-08T05:38:05;25.25;;;16.00;;
15126;SDS011;7664;52.008;4.748;2023-03-08T05:40:36;27.05;;;14.70;;
15126;SDS011;7664;52.008;4.748;2023-03-08T05:43:05;26.92;;;15.35;;
15126;SDS011;7664;52.008;4.748;2023-03-08T05:45:34;27.25;;;16.30;;
15126;SDS011;7664;52.008;4.748;2023-03-08T05:48:05;24.55;;;13.98;;
15126;SDS011;7664;52.008;4.748;2023-03-08T05:50:35;21.65;;;13.80;;
15126;SDS011;7664;52.008;4.748;2023-03-08T05:53:04;21.42;;;14.55;;
15126;SDS011;7664;52.008;4.748;2023-03-08T05:55:35;23.92;;;14.40;;
15126;SDS011;7664;52.008;4.748;2023-03-08T05:58:03;26.02;;;15.63;;
15126;SDS011;7664;52.008;4.748;2023-03-08T06:00:35;25.92;;;16.13;;
15126;SDS011;7664;52.008;4.748;2023-03-08T06:03:07;29.90;;;17.88;;
15126;SDS011;7664;52.008;4.748;2023-03-08T06:05:37;29.02;;;18.45;;
15126;SDS011;7664;52.008;4.748;2023-03-08T06:08:06;42.70;;;21.27;;
15126;SDS011;7664;52.008;4.748;2023-03-08T06:10:37;28.08;;;16.92;;
15126;SDS011;7664;52.008;4.748;2023-03-08T06:13:06;28.25;;;17.23;;
15126;SDS011;7664;52.008;4.748;2023-03-08T06:15:34;28.75;;;16.63;;
15126;SDS011;7664;52.008;4.748;2023-03-08T06:18:06;31.35;;;16.50;;
15126;SDS011;7664;52.008;4.748;2023-03-08T06:20:35;28.02;;;16.70;;
15126;SDS011;7664;52.008;4.748;2023-03-08T06:23:08;27.67;;;16.30;;
15126;SDS011;7664;52.008;4.748;2023-03-08T06:25:37;30.98;;;18.45;;
15126;SDS011;7664;52.008;4.748;2023-03-08T06:28:06;28.02;;;17.15;;
15126;SDS011;7664;52.008;4.748;2023-03-08T06:30:37;26.05;;;16.08;;
15126;SDS011;7664;52.008;4.748;2023-03-08T06:33:07;26.90;;;16.75;;
15126;SDS011;7664;52.008;4.748;2023-03-08T06:35:36;32.30;;;17.67;;
15126;SDS011;7664;52.008;4.748;2023-03-08T06:38:04;33.13;;;17.30;;
15126;SDS011;7664;52.008;4.748;2023-03-08T06:40:35;34.25;;;19.90;;
15126;SDS011;7664;52.008;4.748;2023-03-08T06:43:03;36.10;;;19.40;;
15126;SDS011;7664;52.008;4.748;2023-03-08T06:45:36;36.85;;;20.25;;
15126;SDS011;7664;52.008;4.748;2023-03-08T06:48:05;40.13;;;18.67;;
15126;SDS011;7664;52.008;4.748;2023-03-08T06:50:35;37.45;;;18.80;;
15126;SDS011;7664;52.008;4.748;2023-03-08T06:53:08;37.22;;;17.95;;
15126;SDS011;7664;52.008;4.748;2023-03-08T06:55:45;39.72;;;16.88;;
15126;SDS011;7664;52.008;4.748;2023-03-08T06:58:13;33.13;;;16.70;;
15126;SDS011;7664;52.008;4.748;2023-03-08T07:00:42;31.13;;;16.70;;
15126;SDS011;7664;52.008;4.748;2023-03-08T07:03:10;33.38;;;18.75;;
15126;SDS011;7664;52.008;4.748;2023-03-08T07:05:40;31.33;;;18.20;;
15126;SDS011;7664;52.008;4.748;2023-03-08T07:08:09;30.33;;;18.65;;
15126;SDS011;7664;52.008;4.748;2023-03-08T07:10:37;32.30;;;18.23;;
15126;SDS011;7664;52.008;4.748;2023-03-08T07:13:06;31.15;;;18.80;;
15126;SDS011;7664;52.008;4.748;2023-03-08T07:15:37;31.98;;;19.13;;
15126;SDS011;7664;52.008;4.748;2023-03-08T07:18:06;31.50;;;18.02;;
15126;SDS011;7664;52.008;4.748;2023-03-08T07:20:38;28.63;;;17.75;;
15126;SDS011;7664;52.008;4.748;2023-03-08T07:23:15;30.35;;;18.13;;
15126;SDS011;7664;52.008;4.748;2023-03-08T07:25:45;31.27;;;19.02;;
15126;SDS011;7664;52.008;4.748;2023-03-08T07:28:19;32.15;;;18.80;;
15126;SDS011;7664;52.008;4.748;2023-03-08T07:30:51;34.33;;;20.13;;
15126;SDS011;7664;52.008;4.748;2023-03-08T07:33:20;32.63;;;19.30;;
15126;SDS011;7664;52.008;4.748;2023-03-08T07:35:48;28.80;;;17.75;;
15126;SDS011;7664;52.008;4.748;2023-03-08T07:38:24;34.40;;;20.20;;
15126;SDS011;7664;52.008;4.748;2023-03-08T07:40:53;30.48;;;18.55;;
15126;SDS011;7664;52.008;4.748;2023-03-08T07:43:21;33.97;;;19.13;;
15126;SDS011;7664;52.008;4.748;2023-03-08T07:46:00;30.23;;;18.83;;
15126;SDS011;7664;52.008;4.748;2023-03-08T07:48:37;34.25;;;20.63;;
15126;SDS011;7664;52.008;4.748;2023-03-08T07:51:06;31.42;;;19.40;;
15126;SDS011;7664;52.008;4.748;2023-03-08T07:53:37;34.05;;;19.15;;
15126;SDS011;7664;52.008;4.748;2023-03-08T07:56:05;31.88;;;19.30;;
15126;SDS011;7664;52.008;4.748;2023-03-08T07:58:34;32.90;;;19.27;;
15126;SDS011;7664;52.008;4.748;2023-03-08T08:01:06;33.55;;;18.55;;
15126;SDS011;7664;52.008;4.748;2023-03-08T08:03:36;36.30;;;19.60;;
15126;SDS011;7664;52.008;4.748;2023-03-08T08:06:07;31.95;;;18.75;;
15126;SDS011;7664;52.008;4.748;2023-03-08T08:08:37;30.95;;;18.52;;
15126;SDS011;7664;52.008;4.748;2023-03-08T08:11:09;32.53;;;18.90;;
15126;SDS011;7664;52.008;4.748;2023-03-08T08:13:38;30.65;;;19.52;;
15126;SDS011;7664;52.008;4.748;2023-03-08T08:16:07;30.15;;;18.88;;
15126;SDS011;7664;52.008;4.748;2023-03-08T08:18:35;32.70;;;18.30;;
15126;SDS011;7664;52.008;4.748;2023-03-08T08:21:05;33.22;;;19.75;;
15126;SDS011;7664;52.008;4.748;2023-03-08T08:23:38;36.65;;;19.83;;
15126;SDS011;7664;52.008;4.748;2023-03-08T08:26:07;31.58;;;19.20;;
15126;SDS011;7664;52.008;4.748;2023-03-08T08:28:36;37.80;;;20.92;;
15126;SDS011;7664;52.008;4.748;2023-03-08T08:31:06;36.63;;;18.98;;
15126;SDS011;7664;52.008;4.748;2023-03-08T08:33:37;32.85;;;19.17;;
15126;SDS011;7664;52.008;4.748;2023-03-08T08:36:09;31.08;;;18.45;;
15126;SDS011;7664;52.008;4.748;2023-03-08T08:38:39;32.58;;;18.75;;
15126;SDS011;7664;52.008;4.748;2023-03-08T08:41:08;33.53;;;18.40;;
15126;SDS011;7664;52.008;4.748;2023-03-08T08:43:37;31.88;;;17.52;;
15126;SDS011;7664;52.008;4.748;2023-03-08T08:46:05;27.20;;;16.55;;
15126;SDS011;7664;52.008;4.748;2023-03-08T08:48:34;27.00;;;15.57;;
15126;SDS011;7664;52.008;4.748;2023-03-08T08:51:04;27.55;;;16.35;;
15126;SDS011;7664;52.008;4.748;2023-03-08T08:53:40;28.10;;;15.43;;
15126;SDS011;7664;52.008;4.748;2023-03-08T08:56:10;25.58;;;14.32;;
15126;SDS011;7664;52.008;4.748;2023-03-08T08:58:54;29.30;;;16.02;;
15126;SDS011;7664;52.008;4.748;2023-03-08T09:01:23;24.25;;;14.48;;
15126;SDS011;7664;52.008;4.748;2023-03-08T09:03:56;24.05;;;15.07;;
15126;SDS011;7664;52.008;4.748;2023-03-08T09:06:26;22.13;;;13.70;;
15126;SDS011;7664;52.008;4.748;2023-03-08T09:08:56;22.48;;;13.57;;
15126;SDS011;7664;52.008;4.748;2023-03-08T09:11:25;23.73;;;13.52;;
15126;SDS011;7664;52.008;4.748;2023-03-08T09:13:54;21.73;;;11.45;;
15126;SDS011;7664;52.008;4.748;2023-03-08T09:16:23;22.52;;;12.48;;
15126;SDS011;7664;52.008;4.748;2023-03-08T09:18:54;20.15;;;10.93;;
15126;SDS011;7664;52.008;4.748;2023-03-08T09:21:24;23.95;;;12.55;;
15126;SDS011;7664;52.008;4.748;2023-03-08T09:23:57;20.92;;;11.52;;
15126;SDS011;7664;52.008;4.748;2023-03-08T09:26:27;21.25;;;10.55;;
15126;SDS011;7664;52.008;4.748;2023-03-08T09:28:56;22.25;;;11.55;;
15126;SDS011;7664;52.008;4.748;2023-03-08T09:31:24;21.55;;;10.82;;
15126;SDS011;7664;52.008;4.748;2023-03-08T09:33:53;20.67;;;10.40;;
15126;SDS011;7664;52.008;4.748;2023-03-08T09:36:21;22.83;;;11.77;;
15126;SDS011;7664;52.008;4.748;2023-03-08T09:38:49;22.60;;;12.05;;
15126;SDS011;7664;52.008;4.748;2023-03-08T09:41:30;20.20;;;10.80;;
15126;SDS011;7664;52.008;4.748;2023-03-08T09:44:03;17.50;;;10.02;;
15126;SDS011;7664;52.008;4.748;2023-03-08T09:46:37;22.40;;;12.40;;
15126;SDS011;7664;52.008;4.748;2023-03-08T09:49:08;18.60;;;10.93;;
15126;SDS011;7664;52.008;4.748;2023-03-08T09:51:44;16.77;;;9.85;;
15126;SDS011;7664;52.008;4.748;2023-03-08T09:54:14;21.98;;;11.38;;
15126;SDS011;7664;52.008;4.748;2023-03-08T09:56:46;16.25;;;8.80;;
15126;SDS011;7664;52.008;4.748;2023-03-08T09:59:18;18.48;;;9.65;;
15126;SDS011;7664;52.008;4.748;2023-03-08T10:01:49;15.52;;;8.85;;
15126;SDS011;7664;52.008;4.748;2023-03-08T10:04:22;14.43;;;8.43;;
15126;SDS011;7664;52.008;4.748;2023-03-08T10:06:55;15.98;;;8.43;;
15126;SDS011;7664;52.008;4.748;2023-03-08T10:09:29;16.52;;;7.78;;
15126;SDS011;7664;52.008;4.748;2023-03-08T10:12:01;13.15;;;7.47;;
15126;SDS011;7664;52.008;4.748;2023-03-08T10:14:38;12.82;;;7.53;;
15126;SDS011;7664;52.008;4.748;2023-03-08T10:17:12;15.27;;;7.70;;
15126;SDS011;7664;52.008;4.748;2023-03-08T10:19:42;14.10;;;7.38;;
15126;SDS011;7664;52.008;4.748;2023-03-08T10:22:14;13.40;;;7.82;;
15126;SDS011;7664;52.008;4.748;2023-03-08T10:24:44;15.80;;;7.88;;
15126;SDS011;7664;52.008;4.748;2023-03-08T10:27:22;14.32;;;7.32;;
15126;SDS011;7664;52.008;4.748;2023-03-08T10:29:52;15.73;;;8.32;;
15126;SDS011;7664;52.008;4.748;2023-03-08T10:32:23;14.10;;;7.00;;
15126;SDS011;7664;52.008;4.748;2023-03-08T10:34:59;15.43;;;7.35;;
15126;SDS011;7664;52.008;4.748;2023-03-08T10:37:33;14.32;;;7.63;;
15126;SDS011;7664;52.008;4.748;2023-03-08T10:40:05;15.60;;;8.40;;
15126;SDS011;7664;52.008;4.748;2023-03-08T10:42:41;11.73;;;7.18;;
15126;SDS011;7664;52.008;4.748;2023-03-08T10:45:14;14.63;;;7.90;;
15126;SDS011;7664;52.008;4.748;2023-03-08T10:47:52;14.63;;;7.95;;
15126;SDS011;7664;52.008;4.748;2023-03-08T10:50:21;13.27;;;7.25;;
15126;SDS011;7664;52.008;4.748;2023-03-08T10:52:53;15.93;;;7.50;;
15126;SDS011;7664;52.008;4.748;2023-03-08T10:55:22;13.02;;;6.68;;
15126;SDS011;7664;52.008;4.748;2023-03-08T10:57:53;14.00;;;7.88;;
15126;SDS011;7664;52.008;4.748;2023-03-08T11:00:32;12.38;;;6.55;;
15126;SDS011;7664;52.008;4.748;2023-03-08T11:03:03;16.10;;;8.43;;
15126;SDS011;7664;52.008;4.748;2023-03-08T11:05:37;14.90;;;7.10;;
15126;SDS011;7664;52.008;4.748;2023-03-08T11:08:13;14.10;;;7.78;;
15126;SDS011;7664;52.008;4.748;2023-03-08T11:10:43;13.65;;;7.15;;
15126;SDS011;7664;52.008;4.748;2023-03-08T11:13:28;14.00;;;7.40;;
15126;SDS011;7664;52.008;4.748;2023-03-08T11:16:02;11.27;;;6.45;;
15126;SDS011;7664;52.008;4.748;2023-03-08T11:18:39;13.13;;;6.97;;
15126;SDS011;7664;52.008;4.748;2023-03-08T11:21:11;13.00;;;7.30;;
15126;SDS011;7664;52.008;4.748;2023-03-08T11:23:42;14.45;;;6.35;;
15126;SDS011;7664;52.008;4.748;2023-03-08T11:26:14;13.73;;;6.70;;
15126;SDS011;7664;52.008;4.748;2023-03-08T11:28:52;13.70;;;7.85;;
15126;SDS011;7664;52.008;4.748;2023-03-08T11:31:25;12.20;;;6.75;;
15126;SDS011;7664;52.008;4.748;2023-03-08T11:36:49;13.82;;;7.75;;
15126;SDS011;7664;52.008;4.748;2023-03-08T11:39:23;14.05;;;8.75;;
15126;SDS011;7664;52.008;4.748;2023-03-08T11:41:54;13.48;;;7.22;;
15126;SDS011;7664;52.008;4.748;2023-03-08T11:50:04;14.32;;;7.85;;
15126;SDS011;7664;52.008;4.748;2023-03-08T11:52:39;15.00;;;8.43;;
15126;SDS011;7664;52.008;4.748;2023-03-08T11:55:19;12.25;;;7.68;;
15126;SDS011;7664;52.008;4.748;2023-03-08T11:57:51;15.60;;;8.57;;
15126;SDS011;7664;52.008;4.748;2023-03-08T12:00:23;16.35;;;8.70;;
15126;SDS011;7664;52.008;4.748;2023-03-08T12:02:56;15.38;;;8.38;;
15126;SDS011;7664;52.008;4.748;2023-03-08T12:05:35;13.52;;;8.23;;
15126;SDS011;7664;52.008;4.748;2023-03-08T12:08:14;12.65;;;8.18;;
15126;SDS011;7664;52.008;4.748;2023-03-08T12:10:45;13.27;;;8.45;;
15126;SDS011;7664;52.008;4.748;2023-03-08T12:13:17;14.30;;;8.50;;
15126;SDS011;7664;52.008;4.748;2023-03-08T12:15:51;14.88;;;8.38;;
15126;SDS011;7664;52.008;4.748;2023-03-08T12:18:25;16.42;;;9.07;;
15126;SDS011;7664;52.008;4.748;2023-03-08T12:20:59;14.50;;;9.27;;
15126;SDS011;7664;52.008;4.748;2023-03-08T12:23:30;16.40;;;8.68;;
15126;SDS011;7664;52.008;4.748;2023-03-08T12:26:03;16.67;;;8.93;;
15126;SDS011;7664;52.008;4.748;2023-03-08T12:28:33;13.68;;;8.00;;
15126;SDS011;7664;52.008;4.748;2023-03-08T12:31:12;13.00;;;8.07;;
15126;SDS011;7664;52.008;4.748;2023-03-08T12:33:56;15.32;;;8.02;;
15126;SDS011;7664;52.008;4.748;2023-03-08T12:36:38;14.40;;;7.93;;
15126;SDS011;7664;52.008;4.748;2023-03-08T12:39:22;13.07;;;8.05;;
15126;SDS011;7664;52.008;4.748;2023-03-08T12:41:56;10.80;;;7.40;;
15126;SDS011;7664;52.008;4.748;2023-03-08T12:44:29;13.43;;;7.65;;
15126;SDS011;7664;52.008;4.748;2023-03-08T12:47:01;11.32;;;7.03;;
15126;SDS011;7664;52.008;4.748;2023-03-08T12:49:31;15.00;;;7.90;;
15126;SDS011;7664;52.008;4.748;2023-03-08T12:52:02;12.73;;;7.65;;
15126;SDS011;7664;52.008;4.748;2023-03-08T12:54:34;11.45;;;7.40;;
15126;SDS011;7664;52.008;4.748;2023-03-08T12:57:12;13.82;;;7.97;;
15126;SDS011;7664;52.008;4.748;2023-03-08T12:59:41;13.93;;;7.07;;
15126;SDS011;7664;52.008;4.748;2023-03-08T13:02:24;13.35;;;7.70;;
15126;SDS011;7664;52.008;4.748;2023-03-08T13:05:03;12.55;;;7.00;;
15126;SDS011;7664;52.008;4.748;2023-03-08T13:07:36;14.48;;;7.25;;
15126;SDS011;7664;52.008;4.748;2023-03-08T13:10:17;12.30;;;6.35;;
15126;SDS011;7664;52.008;4.748;2023-03-08T13:13:04;12.65;;;6.78;;
15126;SDS011;7664;52.008;4.748;2023-03-08T13:16:03;12.57;;;6.47;;
15126;SDS011;7664;52.008;4.748;2023-03-08T13:18:31;20.98;;;9.18;;
15126;SDS011;7664;52.008;4.748;2023-03-08T13:21:06;17.52;;;9.32;;
15126;SDS011;7664;52.008;4.748;2023-03-08T13:23:41;19.35;;;9.73;;
15126;SDS011;7664;52.008;4.748;2023-03-08T13:26:13;16.02;;;8.85;;
15126;SDS011;7664;52.008;4.748;2023-03-08T13:28:43;23.50;;;10.27;;
15126;SDS011;7664;52.008;4.748;2023-03-08T13:31:14;16.63;;;8.98;;
15126;SDS011;7664;52.008;4.748;2023-03-08T13:33:46;15.68;;;8.00;;
15126;SDS011;7664;52.008;4.748;2023-03-08T13:36:16;15.85;;;9.05;;
15126;SDS011;7664;52.008;4.748;2023-03-08T13:38:54;16.65;;;9.48;;
15126;SDS011;7664;52.008;4.748;2023-03-08T13:41:30;17.50;;;9.75;;
15126;SDS011;7664;52.008;4.748;2023-03-08T13:43:59;16.95;;;9.55;;
15126;SDS011;7664;52.008;4.748;2023-03-08T13:46:28;15.43;;;8.18;;
15126;SDS011;7664;52.008;4.748;2023-03-08T13:48:56;13.80;;;7.90;;
15126;SDS011;7664;52.008;4.748;2023-03-08T13:51:26;18.45;;;8.68;;
15126;SDS011;7664;52.008;4.748;2023-03-08T13:53:56;14.13;;;8.00;;
15126;SDS011;7664;52.008;4.748;2023-03-08T13:56:26;14.55;;;8.15;;
15126;SDS011;7664;52.008;4.748;2023-03-08T13:58:55;13.57;;;7.53;;
15126;SDS011;7664;52.008;4.748;2023-03-08T14:01:24;17.27;;;9.30;;
15126;SDS011;7664;52.008;4.748;2023-03-08T14:03:54;16.80;;;8.60;;
15126;SDS011;7664;52.008;4.748;2023-03-08T14:06:24;13.70;;;7.70;;
15126;SDS011;7664;52.008;4.748;2023-03-08T14:09:00;15.70;;;8.10;;
15126;SDS011;7664;52.008;4.748;2023-03-08T14:11:33;18.25;;;8.55;;
15126;SDS011;7664;52.008;4.748;2023-03-08T14:14:04;17.55;;;7.47;;
15126;SDS011;7664;52.008;4.748;2023-03-08T14:16:35;16.10;;;8.10;;
15126;SDS011;7664;52.008;4.748;2023-03-08T14:19:08;13.68;;;7.32;;
15126;SDS011;7664;52.008;4.748;2023-03-08T14:21:46;16.25;;;8.63;;
15126;SDS011;7664;52.008;4.748;2023-03-08T14:24:17;16.65;;;8.75;;
15126;SDS011;7664;52.008;4.748;2023-03-08T14:26:52;17.25;;;9.23;;
15126;SDS011;7664;52.008;4.748;2023-03-08T14:29:23;14.07;;;8.02;;
15126;SDS011;7664;52.008;4.748;2023-03-08T14:31:55;21.45;;;9.50;;
15126;SDS011;7664;52.008;4.748;2023-03-08T14:34:25;14.60;;;8.48;;
15126;SDS011;7664;52.008;4.748;2023-03-08T14:36:54;20.65;;;9.00;;
15126;SDS011;7664;52.008;4.748;2023-03-08T14:39:25;18.88;;;9.63;;
15126;SDS011;7664;52.008;4.748;2023-03-08T14:41:54;14.85;;;8.73;;
15126;SDS011;7664;52.008;4.748;2023-03-08T14:44:24;18.98;;;9.55;;
15126;SDS011;7664;52.008;4.748;2023-03-08T14:46:53;20.00;;;10.23;;
15126;SDS011;7664;52.008;4.748;2023-03-08T14:49:25;18.08;;;9.55;;
15126;SDS011;7664;52.008;4.748;2023-03-08T14:51:53;20.45;;;9.70;;
15126;SDS011;7664;52.008;4.748;2023-03-08T14:54:29;17.50;;;8.45;;
15126;SDS011;7664;52.008;4.748;2023-03-08T14:57:03;17.70;;;9.15;;
15126;SDS011;7664;52.008;4.748;2023-03-08T14:59:40;20.95;;;10.05;;
15126;SDS011;7664;52.008;4.748;2023-03-08T15:02:09;18.42;;;10.05;;
15126;SDS011;7664;52.008;4.748;2023-03-08T15:04:38;21.38;;;9.13;;
15126;SDS011;7664;52.008;4.748;2023-03-08T15:07:08;23.85;;;9.57;;
15126;SDS011;7664;52.008;4.748;2023-03-08T15:09:42;22.67;;;11.55;;
15126;SDS011;7664;52.008;4.748;2023-03-08T15:12:16;24.88;;;11.40;;
15126;SDS011;7664;52.008;4.748;2023-03-08T15:14:58;20.13;;;10.98;;
15126;SDS011;7664;52.008;4.748;2023-03-08T15:17:26;21.08;;;10.82;;
15126;SDS011;7664;52.008;4.748;2023-03-08T15:19:54;22.05;;;11.30;;